Jackson Evers International Airport Jackson US
ICAO: KJAN
IATA: JAN
Category: Large
Scheduled Services: Yes

Elevation: 346 ft
TransAlt. 18000 ft.

Airport Communications:
APP/DEP:123.9
ATIS:121.05
CTAF:120.9
GND:121.7
ANG COMD POST:26.46
GREENWOOD RDO:122.2
TWR:120.9
UNICOM:122.95

KJAN Zoom In..

Runways:

(A) RW 16L length 8500 ft width 150 ft
ILS 110.50 / hdg 158

(B) RW 16R length 8500 ft width 150 ft
---- / hdg 158

(C) RW 34L length 8500 ft width 150 ft
ILS 109.30 / hdg 338

(D) RW 34R length 8500 ft width 150 ft
---- / hdg 338

Location; KJAN
Day. 26 / Time. 03.54 Zulu
* Altimeter: 29.95
* Temperature: 22° c. 71.6°f.
* Wind from: 000° Speed 00 kn.
Dewpoint: 21° c.
Visibility: 10 Statute Miles.
Clouds: Scattered 11000 ft.

KJAN 260354Z 00000KT 10SM SCT110 22/21 A2995 RMK AO2 RAB14E44 SLP138 P0000 T02170206


Wind - Calm.

 
 
jpsmedia.com for Web Design SOUNDCLOUD worldairports.se 2018   terms of use